Time;durP1;ratioP1;P1;durP2;ratioP2;P2;SDS_P1;SDS_P2;PMS_P1;PMS_P2;Temp;Humidity;BMP_temperature;BMP_pressure;BME280_temperature;BME280_humidity;BME280_pressure;Samples;Min_cycle;Max_cycle;Signal;HPM_P1;HPM_P2
2022/07/14 00:01:46;;;;;;;65.35;52.72;;;27.10;56.20;;;;;;4986989;27;89902;-58
2022/07/14 00:04:11;;;;;;;64.90;52.83;;;27.10;55.60;;;;;;5008075;27;91798;-57
2022/07/14 00:06:37;;;;;;;64.95;52.65;;;27.10;55.60;;;;;;5005722;27;94743;-57
2022/07/14 00:09:03;;;;;;;64.78;52.50;;;27.10;55.70;;;;;;5000913;27;89908;-58
2022/07/14 00:11:29;;;;;;;65.28;52.65;;;27.10;55.70;;;;;;5011072;27;90687;-59
2022/07/14 00:13:56;;;;;;;66.13;53.05;;;27.10;55.80;;;;;;5005233;27;92258;-59
2022/07/14 00:16:22;;;;;;;66.05;52.75;;;27.10;55.70;;;;;;4996286;27;91491;-58
2022/07/14 00:18:48;;;;;;;65.47;52.72;;;27.10;55.70;;;;;;5001542;27;90534;-59
2022/07/14 00:21:15;;;;;;;67.03;52.85;;;27.10;55.70;;;;;;5005885;27;89720;-59
2022/07/14 00:23:41;;;;;;;65.78;52.85;;;27.10;55.80;;;;;;4967384;27;94966;-58
2022/07/14 00:26:07;;;;;;;66.43;52.80;;;27.10;55.70;;;;;;5000843;27;92769;-59
2022/07/14 00:28:34;;;;;;;67.22;52.60;;;27.00;55.80;;;;;;5002124;27;91640;-57
2022/07/14 00:31:03;;;;;;;64.88;52.88;;;27.10;55.80;;;;;;5004344;27;94269;-59
2022/07/14 00:33:33;;;;;;;65.88;52.72;;;27.10;55.90;;;;;;4998728;27;90132;-59
2022/07/14 00:35:59;;;;;;;65.32;52.45;;;27.10;55.90;;;;;;5002569;27;91040;-59
2022/07/14 00:38:25;;;;;;;64.53;52.38;;;27.00;55.80;;;;;;4995117;27;92358;-57
2022/07/14 00:40:51;;;;;;;64.30;52.58;;;27.00;55.80;;;;;;5016986;27;90815;-59
2022/07/14 00:43:17;;;;;;;64.55;52.55;;;27.00;55.80;;;;;;5013898;27;90912;-59
2022/07/14 00:45:43;;;;;;;65.88;53.05;;;27.00;55.90;;;;;;5014220;27;90007;-57
2022/07/14 00:48:10;;;;;;;65.85;52.95;;;27.00;55.90;;;;;;5021030;27;91480;-57
2022/07/14 00:50:41;;;;;;;67.97;52.72;;;27.00;55.90;;;;;;5013337;27;96542;-57
2022/07/14 00:53:07;;;;;;;66.00;52.58;;;27.00;55.90;;;;;;5015346;27;90448;-58
2022/07/14 00:55:33;;;;;;;66.57;53.03;;;26.90;55.90;;;;;;5011074;27;90148;-57
2022/07/14 00:57:59;;;;;;;67.40;52.85;;;27.00;56.00;;;;;;5014933;27;92500;-58
2022/07/14 01:00:25;;;;;;;64.22;52.72;;;27.00;56.00;;;;;;5011638;27;95028;-58
2022/07/14 01:02:50;;;;;;;65.70;52.40;;;26.90;55.70;;;;;;5011361;27;95783;-59
2022/07/14 01:05:17;;;;;;;64.85;52.90;;;26.90;55.90;;;;;;5012801;27;95233;-57
2022/07/14 01:07:43;;;;;;;65.22;52.72;;;26.90;56.00;;;;;;5012759;27;91020;-58
2022/07/14 01:10:09;;;;;;;66.07;52.72;;;26.90;56.00;;;;;;5008136;27;90194;-58
2022/07/14 01:12:36;;;;;;;64.18;52.50;;;26.90;56.10;;;;;;5015774;27;89693;-59
2022/07/14 01:15:02;;;;;;;66.03;52.50;;;26.90;56.20;;;;;;5014368;27;91304;-58
2022/07/14 01:17:28;;;;;;;65.80;52.72;;;26.90;56.20;;;;;;5015155;27;90673;-58
2022/07/14 01:19:54;;;;;;;64.63;52.70;;;26.90;56.20;;;;;;5008840;27;90086;-59
2022/07/14 01:22:19;;;;;;;66.47;52.97;;;26.90;56.10;;;;;;5009060;27;95110;-58
2022/07/14 01:24:45;;;;;;;64.47;52.58;;;26.90;56.10;;;;;;5020767;27;90185;-58
2022/07/14 01:27:11;;;;;;;66.22;52.53;;;26.90;56.10;;;;;;5021275;27;90084;-58
2022/07/14 01:29:37;;;;;;;65.38;52.55;;;26.80;56.10;;;;;;5009137;27;91221;-58
2022/07/14 01:32:04;;;;;;;64.97;52.75;;;26.80;56.20;;;;;;5017802;27;93395;-58
2022/07/14 01:34:29;;;;;;;66.50;52.47;;;26.80;56.20;;;;;;5018438;27;90883;-59
2022/07/14 01:36:55;;;;;;;65.38;52.53;;;26.80;56.20;;;;;;5012027;27;90346;-57
2022/07/14 01:39:21;;;;;;;68.20;52.55;;;26.80;56.20;;;;;;5009660;27;90878;-58
2022/07/14 01:41:47;;;;;;;65.53;52.85;;;26.80;56.20;;;;;;5025081;27;90339;-59
2022/07/14 01:44:13;;;;;;;64.70;52.58;;;26.80;56.20;;;;;;5007218;27;91481;-57
2022/07/14 01:46:38;;;;;;;65.60;52.53;;;26.80;56.20;;;;;;5007719;27;90085;-58
2022/07/14 01:49:05;;;;;;;64.85;52.58;;;26.80;56.30;;;;;;5007789;27;93734;-57
2022/07/14 01:51:31;;;;;;;65.07;52.50;;;26.80;56.30;;;;;;5012686;27;89679;-59
2022/07/14 01:53:57;;;;;;;64.45;52.63;;;26.80;56.40;;;;;;5007319;27;90928;-58
2022/07/14 01:56:22;;;;;;;65.22;52.38;;;26.80;56.40;;;;;;5007302;27;95331;-58
2022/07/14 01:58:49;;;;;;;64.45;52.33;;;26.80;56.40;;;;;;5016704;27;90959;-59
2022/07/14 02:04:02;;;;;;;64.88;52.53;;;26.80;56.40;;;;;;5007049;27;90879;-59
2022/07/14 02:06:29;;;;;;;66.15;52.35;;;26.80;56.40;;;;;;5007408;27;90852;-58
2022/07/14 02:08:55;;;;;;;66.22;52.53;;;26.80;56.40;;;;;;5012137;27;94371;-58
2022/07/14 02:14:06;;;;;;;66.30;52.42;;;26.70;56.30;;;;;;5017167;27;90952;-58
2022/07/14 02:16:32;;;;;;;64.70;52.55;;;26.80;56.40;;;;;;5010076;27;92387;-59
2022/07/14 02:18:58;;;;;;;64.80;52.35;;;26.80;56.30;;;;;;5013367;27;92400;-58
2022/07/14 02:21:24;;;;;;;65.80;52.17;;;26.80;56.30;;;;;;5018932;27;89552;-58
2022/07/14 02:23:51;;;;;;;65.00;52.35;;;26.70;56.30;;;;;;5014962;27;90809;-57
2022/07/14 02:26:17;;;;;;;65.35;52.75;;;26.70;56.40;;;;;;5013279;27;89950;-59
2022/07/14 02:28:43;;;;;;;63.88;52.17;;;26.70;56.40;;;;;;5015520;27;89858;-56
2022/07/14 02:31:09;;;;;;;63.85;52.20;;;26.70;56.50;;;;;;5021408;27;91194;-59
2022/07/14 02:33:36;;;;;;;64.32;52.17;;;26.70;56.50;;;;;;5013473;27;95907;-58
2022/07/14 02:36:02;;;;;;;64.20;52.55;;;26.60;56.50;;;;;;5013439;27;88919;-58
2022/07/14 02:38:28;;;;;;;64.97;52.50;;;26.70;56.40;;;;;;5012339;27;90192;-59
2022/07/14 02:40:53;;;;;;;66.55;52.72;;;26.60;56.50;;;;;;5019229;27;91525;-56
2022/07/14 02:43:19;;;;;;;63.80;52.22;;;26.70;56.60;;;;;;5014385;27;90691;-59
2022/07/14 02:45:45;;;;;;;63.60;52.15;;;26.60;56.50;;;;;;5016720;27;91222;-59
2022/07/14 02:48:11;;;;;;;64.38;52.45;;;26.70;56.50;;;;;;5021151;27;89580;-57
2022/07/14 02:50:36;;;;;;;62.97;52.03;;;26.60;56.40;;;;;;5027526;27;90168;-58
2022/07/14 02:53:06;;;;;;;63.58;52.28;;;26.60;56.50;;;;;;5012871;27;92402;-58
2022/07/14 02:55:34;;;;;;;64.32;52.13;;;26.60;56.50;;;;;;5007158;27;93302;-58
2022/07/14 02:58:00;;;;;;;65.70;52.63;;;26.60;56.50;;;;;;5012183;27;90086;-56
2022/07/14 03:00:26;;;;;;;64.07;52.22;;;26.60;56.50;;;;;;5021767;27;89078;-58
2022/07/14 03:02:52;;;;;;;65.57;52.47;;;26.60;56.50;;;;;;5008200;27;91630;-57
2022/07/14 03:05:18;;;;;;;63.38;52.25;;;26.60;56.50;;;;;;5006618;27;98036;-58
2022/07/14 03:07:43;;;;;;;64.32;52.10;;;26.60;56.50;;;;;;5009502;27;91274;-57
2022/07/14 03:10:09;;;;;;;64.38;52.30;;;26.60;56.50;;;;;;5013729;27;93778;-58
2022/07/14 03:12:35;;;;;;;63.35;51.92;;;26.60;56.60;;;;;;5015992;27;90622;-58
2022/07/14 03:15:01;;;;;;;64.95;51.97;;;26.60;56.50;;;;;;5014285;27;95276;-59
2022/07/14 03:17:27;;;;;;;64.35;52.25;;;26.60;56.60;;;;;;5017387;27;90482;-59
2022/07/14 03:19:53;;;;;;;64.03;52.35;;;26.50;56.50;;;;;;5010854;27;90575;-58
2022/07/14 03:22:18;;;;;;;63.95;52.10;;;26.50;56.50;;;;;;5004988;27;91806;-59
2022/07/14 03:24:44;;;;;;;64.32;52.25;;;26.50;56.50;;;;;;5004641;27;91341;-57
2022/07/14 03:27:10;;;;;;;64.82;52.22;;;26.50;56.50;;;;;;5018130;27;90045;-58
2022/07/14 03:29:39;;;;;;;65.32;52.35;;;26.50;56.50;;;;;;5016339;27;90013;-58
2022/07/14 03:32:05;;;;;;;63.92;52.15;;;26.50;56.60;;;;;;5008207;27;91809;-58
2022/07/14 03:34:31;;;;;;;63.25;52.05;;;26.50;56.60;;;;;;5007720;27;91083;-58
2022/07/14 03:36:57;;;;;;;64.53;52.47;;;26.50;56.60;;;;;;5015132;27;91046;-58
2022/07/14 03:39:23;;;;;;;62.45;51.70;;;26.50;56.60;;;;;;5013717;27;90036;-58
2022/07/14 03:41:48;;;;;;;62.97;51.80;;;26.50;56.60;;;;;;5007079;27;91478;-58
2022/07/14 03:44:14;;;;;;;63.58;51.83;;;26.50;56.60;;;;;;5014958;27;90301;-59
2022/07/14 03:46:40;;;;;;;63.72;52.30;;;26.50;56.60;;;;;;5011758;27;90727;-58
2022/07/14 03:49:05;;;;;;;64.45;52.05;;;26.50;56.70;;;;;;5004095;27;96256;-57
2022/07/14 03:51:31;;;;;;;63.28;52.03;;;26.50;56.60;;;;;;5014226;27;91314;-58
2022/07/14 03:53:57;;;;;;;64.20;51.83;;;26.50;56.70;;;;;;5009404;27;90355;-58
2022/07/14 03:56:23;;;;;;;63.10;51.95;;;26.40;56.60;;;;;;5006931;27;96635;-56
2022/07/14 03:58:49;;;;;;;63.55;52.03;;;26.40;56.70;;;;;;5009485;27;96857;-59
2022/07/14 04:01:14;;;;;;;63.92;52.22;;;26.40;56.60;;;;;;5015644;27;90406;-59
2022/07/14 04:03:40;;;;;;;63.90;51.85;;;26.40;56.70;;;;;;5008232;27;90104;-57
2022/07/14 04:06:05;;;;;;;63.97;52.10;;;26.40;56.70;;;;;;5010188;27;89711;-56
2022/07/14 04:08:31;;;;;;;63.10;51.72;;;26.40;56.60;;;;;;5005516;27;90088;-58
2022/07/14 04:10:57;;;;;;;62.35;51.88;;;26.40;56.70;;;;;;5012841;27;94249;-58
2022/07/14 04:13:23;;;;;;;63.38;51.83;;;26.40;56.70;;;;;;5013121;27;89992;-58
2022/07/14 04:15:48;;;;;;;63.25;51.60;;;26.40;56.70;;;;;;5015350;27;90962;-58
2022/07/14 04:18:14;;;;;;;63.13;52.03;;;26.40;56.70;;;;;;5011359;27;91109;-57
2022/07/14 04:20:46;;;;;;;63.60;52.10;;;26.40;56.70;;;;;;5013334;27;91011;-58
2022/07/14 04:23:11;;;;;;;65.45;51.95;;;26.30;56.60;;;;;;5010973;27;90756;-58
2022/07/14 04:25:37;;;;;;;62.85;51.35;;;26.40;56.70;;;;;;5018241;27;90893;-58
2022/07/14 04:28:02;;;;;;;63.40;52.13;;;26.30;56.60;;;;;;4995891;27;90506;-58
2022/07/14 04:30:28;;;;;;;63.05;51.95;;;26.30;56.60;;;;;;5019594;27;90285;-57
2022/07/14 04:32:54;;;;;;;62.65;51.50;;;26.40;56.60;;;;;;5013350;27;91935;-57
2022/07/14 04:35:20;;;;;;;63.85;51.75;;;26.40;56.60;;;;;;5014566;27;89816;-58
2022/07/14 04:37:45;;;;;;;62.38;51.55;;;26.30;56.60;;;;;;5014188;27;90590;-55
2022/07/14 04:40:11;;;;;;;62.45;51.65;;;26.30;56.70;;;;;;5013034;27;90164;-58
2022/07/14 04:42:36;;;;;;;63.00;51.45;;;26.30;56.60;;;;;;5013320;27;95175;-58
2022/07/14 04:45:02;;;;;;;62.35;51.45;;;26.40;56.60;;;;;;5011896;27;91587;-58
2022/07/14 04:47:28;;;;;;;63.00;51.88;;;26.30;56.60;;;;;;5022772;27;91401;-57
2022/07/14 04:52:45;;;;;;;63.03;51.63;;;26.40;56.60;;;;;;5009805;27;97876;-57
2022/07/14 04:55:11;;;;;;;62.85;51.92;;;26.40;56.60;;;;;;4990563;27;91427;-58
2022/07/14 04:57:36;;;;;;;63.17;52.03;;;26.30;56.60;;;;;;5009907;27;89738;-57
2022/07/14 05:00:03;;;;;;;63.17;51.63;;;26.30;56.60;;;;;;5014467;27;92477;-59
2022/07/14 05:02:29;;;;;;;63.40;51.83;;;26.30;56.60;;;;;;5008179;27;91771;-58
2022/07/14 05:04:54;;;;;;;62.53;51.50;;;26.30;57.30;;;;;;5008734;27;96156;-59
2022/07/14 05:07:20;;;;;;;63.45;51.67;;;26.30;56.60;;;;;;5015440;27;89955;-57
2022/07/14 05:09:45;;;;;;;62.55;51.65;;;26.40;56.60;;;;;;5018388;27;91771;-57
2022/07/14 05:12:13;;;;;;;61.88;51.55;;;26.40;56.60;;;;;;5016055;27;90786;-58
2022/07/14 05:14:39;;;;;;;63.25;51.85;;;26.40;56.60;;;;;;5009163;27;89895;-58
2022/07/14 05:17:04;;;;;;;62.92;51.70;;;26.40;56.50;;;;;;5016496;27;91742;-58
2022/07/14 05:19:30;;;;;;;63.08;51.65;;;26.40;56.60;;;;;;5008741;27;90408;-57
2022/07/14 05:21:55;;;;;;;62.50;51.80;;;26.40;56.60;;;;;;5011708;27;90434;-57
2022/07/14 05:24:22;;;;;;;62.60;51.63;;;26.40;56.40;;;;;;5012867;27;91621;-58
2022/07/14 05:26:47;;;;;;;62.25;51.63;;;26.40;56.30;;;;;;5017847;27;89453;-56
2022/07/14 05:29:13;;;;;;;64.28;51.63;;;26.40;56.30;;;;;;4991744;27;92544;-57
2022/07/14 05:31:39;;;;;;;62.88;51.75;;;26.40;56.30;;;;;;5009644;27;94229;-56
2022/07/14 05:34:06;;;;;;;62.35;51.72;;;26.40;56.30;;;;;;5013433;27;91834;-58
2022/07/14 05:36:31;;;;;;;62.25;51.70;;;26.40;56.30;;;;;;5018773;27;90797;-57
2022/07/14 05:38:57;;;;;;;62.42;51.85;;;26.40;56.80;;;;;;5009852;27;95281;-57
2022/07/14 05:41:23;;;;;;;61.80;51.38;;;26.40;56.30;;;;;;5009152;27;92002;-58
2022/07/14 05:43:48;;;;;;;62.10;51.65;;;26.40;56.20;;;;;;5015468;27;91398;-57
2022/07/14 05:46:15;;;;;;;62.15;51.53;;;26.30;56.20;;;;;;5009289;27;95593;-57
2022/07/14 05:48:41;;;;;;;62.22;51.33;;;26.40;56.20;;;;;;5010437;27;91263;-58
2022/07/14 05:51:12;;;;;;;63.65;51.80;;;26.40;56.20;;;;;;5008422;27;91143;-58
2022/07/14 05:53:39;;;;;;;61.95;51.35;;;26.40;56.30;;;;;;5009138;27;90670;-57
2022/07/14 05:56:06;;;;;;;62.40;51.25;;;26.40;56.30;;;;;;5001821;27;95447;-58
2022/07/14 05:58:32;;;;;;;62.38;51.47;;;26.40;56.50;;;;;;5013803;27;91488;-57
2022/07/14 06:00:58;;;;;;;62.45;51.58;;;26.40;56.40;;;;;;5012807;27;91170;-57
2022/07/14 06:03:24;;;;;;;64.70;51.50;;;26.40;56.40;;;;;;5018249;27;89985;-58
2022/07/14 06:05:50;;;;;;;61.78;51.25;;;26.50;56.30;;;;;;5010912;27;90237;-57
2022/07/14 06:08:16;;;;;;;62.20;51.60;;;26.40;56.40;;;;;;5014943;27;95816;-57
2022/07/14 06:10:42;;;;;;;63.00;51.45;;;26.50;56.40;;;;;;5010817;27;90031;-55
2022/07/14 06:13:07;;;;;;;62.20;51.58;;;26.50;56.40;;;;;;5015487;27;90460;-57
2022/07/14 06:15:33;;;;;;;64.40;51.65;;;26.50;56.30;;;;;;5018098;27;89835;-57
2022/07/14 06:17:59;;;;;;;62.47;51.72;;;26.50;56.30;;;;;;5012465;27;91069;-58
2022/07/14 06:20:24;;;;;;;61.95;51.50;;;26.50;56.00;;;;;;5013655;27;94257;-57
2022/07/14 06:22:50;;;;;;;61.72;51.47;;;26.50;56.00;;;;;;5009963;27;95150;-58
2022/07/14 06:25:16;;;;;;;62.15;51.63;;;26.50;55.90;;;;;;5011090;27;91424;-56
2022/07/14 06:27:42;;;;;;;62.17;51.63;;;26.50;55.80;;;;;;5011254;27;89788;-58
2022/07/14 06:30:09;;;;;;;61.97;51.50;;;26.60;55.90;;;;;;4993069;27;91793;-57
2022/07/14 06:32:41;;;;;;;63.35;51.78;;;26.50;55.80;;;;;;5012285;27;89990;-57
2022/07/14 06:35:08;;;;;;;62.60;51.75;;;26.60;56.00;;;;;;5012532;27;89882;-59
2022/07/14 06:37:35;;;;;;;62.72;51.58;;;26.60;56.00;;;;;;5013561;27;89948;-57
2022/07/14 06:40:04;;;;;;;62.78;51.53;;;26.60;56.00;;;;;;5011408;27;93752;-57
2022/07/14 06:42:30;;;;;;;62.13;51.50;;;26.60;55.90;;;;;;5007154;27;90235;-56
2022/07/14 06:44:55;;;;;;;64.93;51.72;;;26.70;55.80;;;;;;5004860;27;90588;-48
2022/07/14 06:47:21;;;;;;;65.72;52.35;;;26.60;55.60;;;;;;4989662;27;92956;-52
2022/07/14 06:49:47;;;;;;;66.28;52.67;;;26.40;55.10;;;;;;5018628;27;90041;-53
2022/07/14 06:52:12;;;;;;;66.40;52.20;;;26.20;55.20;;;;;;5003405;27;90269;-45
2022/07/14 06:54:38;;;;;;;66.35;52.25;;;26.10;55.50;;;;;;5008718;27;91425;-53
2022/07/14 06:57:04;;;;;;;64.50;51.97;;;26.20;55.70;;;;;;5013488;27;91534;-50
2022/07/14 06:59:30;;;;;;;66.40;52.22;;;26.00;55.00;;;;;;5005857;27;92950;-51
2022/07/14 07:01:56;;;;;;;66.57;52.10;;;25.90;55.00;;;;;;5014379;27;94618;-51
2022/07/14 07:04:23;;;;;;;65.30;52.15;;;25.80;54.70;;;;;;5012829;27;92332;-50
2022/07/14 07:06:49;;;;;;;65.72;52.17;;;25.60;55.80;;;;;;5013632;27;91307;-52
2022/07/14 07:09:15;;;;;;;68.20;51.95;;;25.60;55.10;;;;;;5007292;27;94840;-51
2022/07/14 07:11:43;;;;;;;66.25;51.53;;;25.60;55.20;;;;;;5009656;27;90515;-54
2022/07/14 07:14:09;;;;;;;64.45;51.88;;;25.60;56.20;;;;;;5007108;27;90190;-49
2022/07/14 07:16:35;;;;;;;65.90;51.83;;;25.60;53.90;;;;;;5012244;27;91762;-49
2022/07/14 07:19:01;;;;;;;64.32;51.97;;;25.50;55.60;;;;;;5015591;27;93854;-50
2022/07/14 07:21:26;;;;;;;66.25;52.38;;;25.50;55.80;;;;;;5008407;27;91648;-51
2022/07/14 07:23:54;;;;;;;68.30;52.45;;;25.60;55.50;;;;;;5006194;27;90124;-51
2022/07/14 07:26:22;;;;;;;65.85;52.15;;;25.60;54.90;;;;;;5015338;27;92884;-50
2022/07/14 07:28:49;;;;;;;65.07;51.60;;;25.60;54.50;;;;;;5004127;27;89776;-51
2022/07/14 07:31:15;;;;;;;67.32;51.85;;;25.50;52.90;;;;;;5012783;27;90322;-50
2022/07/14 07:33:41;;;;;;;63.80;51.63;;;25.30;54.00;;;;;;5008487;27;90222;-49
2022/07/14 07:36:07;;;;;;;66.78;52.13;;;25.50;55.00;;;;;;5011060;27;93263;-50
2022/07/14 07:38:33;;;;;;;68.57;52.25;;;25.60;54.00;;;;;;5002349;27;90934;-52
2022/07/14 07:41:01;;;;;;;68.90;51.85;;;25.50;53.60;;;;;;5005311;27;93676;-49
2022/07/14 07:43:27;;;;;;;63.90;51.45;;;25.50;54.40;;;;;;5014206;27;90729;-54
2022/07/14 07:45:53;;;;;;;66.07;51.97;;;25.60;54.90;;;;;;5005668;27;89651;-52
2022/07/14 07:48:19;;;;;;;65.15;51.78;;;25.60;53.10;;;;;;5003314;27;89876;-49
2022/07/14 07:50:45;;;;;;;67.45;51.78;;;25.60;53.50;;;;;;5003300;27;90389;-51
2022/07/14 07:53:12;;;;;;;63.63;51.72;;;25.60;53.90;;;;;;5008455;27;91431;-49
2022/07/14 07:55:38;;;;;;;62.53;51.55;;;25.50;53.90;;;;;;5004249;27;90266;-52
2022/07/14 07:58:05;;;;;;;68.18;51.95;;;25.50;54.30;;;;;;5016162;27;91622;-53
2022/07/14 08:00:31;;;;;;;65.85;52.13;;;25.60;54.10;;;;;;4990166;27;94195;-49
2022/07/14 08:02:57;;;;;;;67.93;51.83;;;25.60;53.80;;;;;;5013172;27;91245;-49
2022/07/14 08:05:25;;;;;;;63.70;51.70;;;25.60;52.50;;;;;;5007346;27;90966;-52
2022/07/14 08:07:52;;;;;;;67.22;51.78;;;25.60;52.80;;;;;;5013404;27;91841;-51
2022/07/14 08:10:19;;;;;;;67.45;51.80;;;25.50;53.60;;;;;;5011781;27;90540;-50
2022/07/14 08:12:45;;;;;;;64.53;51.45;;;25.60;53.40;;;;;;5007495;27;89882;-48
2022/07/14 08:15:12;;;;;;;64.68;51.67;;;25.60;52.90;;;;;;5002245;27;90528;-49
2022/07/14 08:17:38;;;;;;;63.25;51.70;;;25.70;52.60;;;;;;5003464;27;89600;-50
2022/07/14 08:20:05;;;;;;;64.28;51.72;;;25.60;52.60;;;;;;5006862;27;90238;-54
2022/07/14 08:22:31;;;;;;;70.85;52.05;;;25.60;52.50;;;;;;5007149;27;90847;-50
2022/07/14 08:24:57;;;;;;;65.15;51.88;;;25.70;53.20;;;;;;5002560;27;94799;-49
2022/07/14 08:27:23;;;;;;;65.57;51.75;;;25.70;53.10;;;;;;5005663;27;92594;-50
2022/07/14 08:29:50;;;;;;;66.95;51.60;;;25.70;51.80;;;;;;5009154;27;95712;-50
2022/07/14 08:32:17;;;;;;;65.55;51.70;;;25.70;53.10;;;;;;5016101;27;89634;-52
2022/07/14 08:34:43;;;;;;;64.57;51.88;;;25.70;53.10;;;;;;5011011;27;90925;-52
2022/07/14 08:37:09;;;;;;;63.72;52.28;;;25.80;53.40;;;;;;5005547;27;90622;-44
2022/07/14 08:39:34;;;;;;;67.47;52.03;;;25.90;53.80;;;;;;4984477;27;90437;-52
2022/07/14 08:42:01;;;;;;;65.95;52.22;;;25.90;52.40;;;;;;5012425;27;89284;-50
2022/07/14 08:44:28;;;;;;;62.72;51.60;;;25.70;53.10;;;;;;5012647;27;90203;-48
2022/07/14 08:46:55;;;;;;;66.00;52.05;;;25.80;53.70;;;;;;5012099;27;90595;-48
2022/07/14 08:49:21;;;;;;;64.63;51.85;;;25.90;52.00;;;;;;5011987;27;91400;-51
2022/07/14 08:51:49;;;;;;;67.63;51.95;;;25.80;52.50;;;;;;5015596;27;90095;-47
2022/07/14 08:54:15;;;;;;;65.97;51.85;;;25.90;53.20;;;;;;5013877;27;91847;-50
2022/07/14 08:56:41;;;;;;;65.13;52.00;;;26.00;51.80;;;;;;5017925;27;92048;-52
2022/07/14 08:59:08;;;;;;;65.65;52.22;;;26.00;53.50;;;;;;5014394;27;90411;-47
2022/07/14 09:01:34;;;;;;;66.82;52.42;;;26.10;52.60;;;;;;5017586;27;89915;-49
2022/07/14 09:04:01;;;;;;;67.53;52.05;;;26.10;53.70;;;;;;5010676;27;91695;-50
2022/07/14 09:06:43;;;;;;;68.20;52.15;;;26.10;52.90;;;;;;5009785;27;92035;-48
2022/07/14 09:09:09;;;;;;;69.60;52.65;;;26.20;53.30;;;;;;5017688;27;91475;-48
2022/07/14 09:11:35;;;;;;;71.50;52.67;;;26.20;53.10;;;;;;5017907;27;91644;-49
2022/07/14 09:14:10;;;;;;;66.07;52.17;;;26.10;53.30;;;;;;4987617;27;97402;-52
2022/07/14 09:16:36;;;;;;;70.30;53.08;;;26.10;53.90;;;;;;5014787;27;92381;-48
2022/07/14 09:19:06;;;;;;;72.72;53.70;;;26.10;52.80;;;;;;5013285;27;92021;-52
2022/07/14 09:21:33;;;;;;;66.43;52.45;;;26.00;53.60;;;;;;5013073;27;92629;-54
2022/07/14 09:23:59;;;;;;;67.75;52.97;;;26.00;54.80;;;;;;5010657;27;94713;-49
2022/07/14 09:26:25;;;;;;;65.30;52.80;;;26.10;53.80;;;;;;5006202;27;93327;-50
2022/07/14 09:28:52;;;;;;;66.85;52.88;;;26.00;54.00;;;;;;5012089;27;90582;-51
2022/07/14 09:31:43;;;;;;;65.95;52.65;;;26.00;54.20;;;;;;5012821;27;89484;-51
2022/07/14 09:34:22;;;;;;;64.70;52.20;;;25.90;55.30;;;;;;5010936;27;95183;-52
2022/07/14 09:36:49;;;;;;;65.50;52.25;;;26.00;54.90;;;;;;5016308;27;90579;-52
2022/07/14 09:39:15;;;;;;;66.38;51.92;;;26.20;54.90;;;;;;5008120;27;91028;-49
2022/07/14 09:41:56;;;;;;;66.38;52.60;;;26.20;53.70;;;;;;5006025;27;90079;-49
2022/07/14 09:44:22;;;;;;;70.72;52.47;;;26.30;51.20;;;;;;5022453;27;89866;-49
2022/07/14 09:46:56;;;;;;;66.80;52.17;;;26.30;53.30;;;;;;5008655;27;91506;-52
2022/07/14 09:49:30;;;;;;;69.28;52.33;;;26.30;51.70;;;;;;5016707;27;89842;-51
2022/07/14 09:52:06;;;;;;;65.75;52.25;;;26.30;52.30;;;;;;5012914;27;90292;-52
2022/07/14 09:54:46;;;;;;;69.70;52.55;;;26.20;52.90;;;;;;5016593;27;91073;-49
2022/07/14 09:57:12;;;;;;;67.93;52.58;;;26.40;51.80;;;;;;5003571;27;95298;-49
2022/07/14 09:59:47;;;;;;;68.20;51.72;;;26.30;51.20;;;;;;5006714;27;89929;-50
2022/07/14 10:02:18;;;;;;;71.80;52.08;;;26.30;51.60;;;;;;5018399;27;90010;-51
2022/07/14 10:04:45;;;;;;;69.55;52.63;;;26.40;52.70;;;;;;5009686;27;92227;-48
2022/07/14 10:07:12;;;;;;;68.20;52.55;;;26.50;50.90;;;;;;5008257;27;91407;-49
2022/07/14 10:09:46;;;;;;;69.47;52.45;;;26.50;51.50;;;;;;5001678;27;92513;-51
2022/07/14 10:12:12;;;;;;;66.32;51.90;;;26.40;51.90;;;;;;5002863;27;90844;-50
2022/07/14 10:14:38;;;;;;;68.38;52.42;;;26.60;51.50;;;;;;5009466;27;90692;-51
2022/07/14 10:17:04;;;;;;;65.60;52.20;;;26.50;53.00;;;;;;5008981;27;91708;-52
2022/07/14 10:19:30;;;;;;;66.80;52.17;;;26.50;50.10;;;;;;5011347;27;91268;-48
2022/07/14 10:21:58;;;;;;;67.05;52.33;;;26.50;52.30;;;;;;5008008;27;88917;-51
2022/07/14 10:24:25;;;;;;;66.30;52.13;;;26.70;50.60;;;;;;5011126;27;90573;-54
2022/07/14 10:26:52;;;;;;;65.25;52.38;;;26.50;53.10;;;;;;5001951;27;90213;-54
2022/07/14 10:29:18;;;;;;;65.63;52.50;;;26.60;54.30;;;;;;5005525;27;91330;-54
2022/07/14 10:32:12;;;;;;;69.30;53.00;;;26.60;54.40;;;;;;5016883;27;91620;-54
2022/07/14 10:35:03;;;;;;;67.00;52.85;;;26.70;54.60;;;;;;5014877;27;90197;-52
2022/07/14 10:37:48;;;;;;;76.22;55.35;;;26.80;55.30;;;;;;5008743;27;94971;-55
2022/07/14 10:40:45;;;;;;;87.05;56.75;;;26.80;56.30;;;;;;5011115;27;90617;-53
2022/07/14 10:43:16;;;;;;;69.80;53.60;;;26.90;56.20;;;;;;5013179;27;90805;-53
2022/07/14 10:45:55;;;;;;;76.75;55.55;;;26.90;55.50;;;;;;5013705;27;90817;-56
2022/07/14 10:48:31;;;;;;;77.18;54.92;;;27.00;56.00;;;;;;5017327;27;89523;-58
2022/07/14 10:51:15;;;;;;;79.07;54.65;;;27.10;56.70;;;;;;5006654;27;90022;-55
2022/07/14 10:54:00;;;;;;;67.82;52.72;;;27.10;56.10;;;;;;5009830;27;90259;-56
2022/07/14 10:56:27;;;;;;;75.38;54.25;;;27.10;56.20;;;;;;5006299;27;92451;-51
2022/07/14 10:59:27;;;;;;;69.53;54.20;;;27.20;55.70;;;;;;5006173;27;94724;-61
2022/07/14 11:02:14;;;;;;;66.63;52.60;;;27.20;55.80;;;;;;5021527;27;90833;-62
2022/07/14 11:05:01;;;;;;;70.30;53.55;;;27.30;55.80;;;;;;4988512;27;90251;-56
2022/07/14 11:07:40;;;;;;;73.00;53.63;;;27.30;55.80;;;;;;5020369;27;94882;-58
2022/07/14 11:10:26;;;;;;;70.53;53.67;;;27.40;55.90;;;;;;5009535;27;90598;-62
2022/07/14 11:13:06;;;;;;;72.15;53.40;;;27.40;56.10;;;;;;5001738;27;95320;-52
2022/07/14 11:15:39;;;;;;;70.63;53.53;;;27.40;56.60;;;;;;5018299;27;89189;-57
2022/07/14 11:18:21;;;;;;;78.28;53.65;;;27.40;56.60;;;;;;5006172;27;89570;-53
2022/07/14 11:21:17;;;;;;;70.90;53.88;;;27.40;56.80;;;;;;5006283;27;90285;-57
2022/07/14 11:23:48;;;;;;;69.13;53.80;;;27.50;56.90;;;;;;5007438;27;90904;-57
2022/07/14 11:26:35;;;;;;;70.10;53.53;;;27.50;57.00;;;;;;4989939;27;92590;-58
2022/07/14 11:29:04;;;;;;;72.72;53.58;;;27.50;57.20;;;;;;5009629;27;90124;-58
2022/07/14 11:31:49;;;;;;;69.63;53.50;;;27.50;57.30;;;;;;4993488;27;95473;-55
2022/07/14 11:37:59;;;;;;;67.28;53.05;;;27.50;57.00;;;;;;5007444;27;91983;-49
2022/07/14 11:40:45;;;;;;;70.40;53.35;;;27.60;56.90;;;;;;4997658;27;90603;-52
2022/07/14 11:43:29;;;;;;;69.95;53.35;;;27.60;56.90;;;;;;5004218;27;89735;-50
2022/07/14 11:46:13;;;;;;;68.30;53.33;;;27.70;56.80;;;;;;5003768;27;92721;-57
2022/07/14 11:48:48;;;;;;;66.65;52.88;;;27.60;56.80;;;;;;5007207;27;91798;-57
2022/07/14 11:51:23;;;;;;;66.35;53.13;;;27.60;56.70;;;;;;5006046;27;96510;-57
2022/07/14 11:53:55;;;;;;;70.38;53.20;;;27.70;56.40;;;;;;4993462;27;90995;-57
2022/07/14 11:56:25;;;;;;;67.07;53.38;;;27.70;56.20;;;;;;5006977;27;90143;-57
2022/07/14 11:58:53;;;;;;;70.72;53.30;;;27.70;56.20;;;;;;4983197;27;89877;-57
2022/07/14 12:01:19;;;;;;;66.82;53.15;;;27.60;56.10;;;;;;4985771;27;89633;-57
2022/07/14 12:03:45;;;;;;;69.40;53.25;;;27.60;56.00;;;;;;4990137;27;91526;-55
2022/07/14 12:06:11;;;;;;;67.18;52.90;;;27.70;55.90;;;;;;4994700;27;93460;-57
2022/07/14 12:08:37;;;;;;;68.47;53.22;;;27.70;55.80;;;;;;5004647;27;90154;-56
2022/07/14 12:11:04;;;;;;;67.35;53.05;;;27.70;55.60;;;;;;4990773;27;93085;-57
2022/07/14 12:13:30;;;;;;;66.57;53.22;;;27.70;55.50;;;;;;4997952;27;90271;-55
2022/07/14 12:16:03;;;;;;;69.50;53.53;;;27.70;55.40;;;;;;4998134;27;92197;-56
2022/07/14 12:18:31;;;;;;;67.30;53.28;;;27.80;55.40;;;;;;5001349;27;91634;-57
2022/07/14 12:20:59;;;;;;;68.47;53.20;;;27.80;55.30;;;;;;5004580;27;89982;-57
2022/07/14 12:23:25;;;;;;;68.03;53.15;;;27.80;55.20;;;;;;4976316;27;92890;-54
2022/07/14 12:25:50;;;;;;;73.63;53.85;;;27.70;55.40;;;;;;4992156;27;96032;-56
2022/07/14 12:28:18;;;;;;;65.68;52.83;;;27.80;55.40;;;;;;4982739;27;90496;-57
2022/07/14 12:30:49;;;;;;;68.72;53.63;;;27.80;55.20;;;;;;5001308;27;90515;-57
2022/07/14 12:33:20;;;;;;;66.93;53.40;;;27.80;55.00;;;;;;4989435;27;90859;-56
2022/07/14 12:35:48;;;;;;;67.97;53.45;;;27.90;55.00;;;;;;4976962;27;91367;-56
2022/07/14 12:38:15;;;;;;;68.72;53.38;;;27.90;55.10;;;;;;5002988;27;93167;-55
2022/07/14 12:40:41;;;;;;;67.63;53.45;;;27.90;55.00;;;;;;5003850;27;91938;-56
2022/07/14 12:43:09;;;;;;;67.28;53.33;;;27.90;55.00;;;;;;4991903;27;92177;-56
2022/07/14 12:45:59;;;;;;;70.32;53.35;;;27.90;55.00;;;;;;4991592;27;93988;-56